createdAt,value
2018-08-13T00:01:11.636Z,67.20
2018-08-13T00:03:40.120Z,66.40
2018-08-13T00:06:08.652Z,66.80
2018-08-13T00:08:37.114Z,66.80
2018-08-13T00:11:05.831Z,67.20
2018-08-13T00:13:34.280Z,67.20
2018-08-13T00:16:02.808Z,68.30
2018-08-13T00:18:31.414Z,68.10
2018-08-13T00:20:59.927Z,68.80
2018-08-13T00:23:28.382Z,68.30
2018-08-13T00:25:56.777Z,69.20
2018-08-13T00:28:25.257Z,68.70
2018-08-13T00:30:53.718Z,69.00
2018-08-13T00:33:22.143Z,69.60
2018-08-13T00:35:50.664Z,69.80
2018-08-13T00:38:19.027Z,69.70
2018-08-13T00:40:47.483Z,70.10
2018-08-13T00:43:15.910Z,70.30
2018-08-13T00:45:44.317Z,70.80
2018-08-13T00:48:12.877Z,70.30
2018-08-13T00:50:41.424Z,70.60
2018-08-13T00:53:09.922Z,70.20
2018-08-13T00:55:38.411Z,70.20
2018-08-13T00:58:07.213Z,69.40
2018-08-13T01:00:35.895Z,69.80
2018-08-13T01:03:04.653Z,70.60
2018-08-13T01:05:33.124Z,70.70
2018-08-13T01:08:01.579Z,70.50
2018-08-13T01:10:30.080Z,70.40
2018-08-13T01:12:58.490Z,70.40
2018-08-13T01:15:27.004Z,71.10
2018-08-13T01:17:55.456Z,71.20
2018-08-13T01:20:23.930Z,71.00
2018-08-13T01:22:52.344Z,70.90
2018-08-13T01:25:21.124Z,70.60
2018-08-13T01:27:49.626Z,71.40
2018-08-13T01:30:19.151Z,71.50
2018-08-13T01:32:47.608Z,71.40
2018-08-13T01:35:16.205Z,71.20
2018-08-13T01:37:44.606Z,72.00
2018-08-13T01:40:13.451Z,71.40
2018-08-13T01:42:41.851Z,70.70
2018-08-13T01:45:11.674Z,71.20
2018-08-13T01:47:40.734Z,70.50
2018-08-13T01:50:10.648Z,70.70
2018-08-13T01:52:39.180Z,70.60
2018-08-13T01:55:08.853Z,71.00
2018-08-13T01:57:37.478Z,71.20
2018-08-13T02:00:12.178Z,71.20
2018-08-13T02:02:40.675Z,71.90
2018-08-13T02:05:09.193Z,72.30
2018-08-13T02:07:38.132Z,72.80
2018-08-13T02:10:07.731Z,73.40
2018-08-13T02:12:36.133Z,73.40
2018-08-13T02:15:05.537Z,73.10
2018-08-13T02:17:34.066Z,73.20
2018-08-13T02:20:02.536Z,72.60
2018-08-13T02:22:31.076Z,73.60
2018-08-13T02:24:59.680Z,73.50
2018-08-13T02:27:28.139Z,73.50
2018-08-13T02:29:56.600Z,73.70
2018-08-13T02:32:25.004Z,73.70
2018-08-13T02:34:53.485Z,73.80
2018-08-13T02:37:21.990Z,73.30
2018-08-13T02:39:50.432Z,73.20
2018-08-13T02:42:18.889Z,73.20
2018-08-13T02:44:47.317Z,73.40
2018-08-13T02:47:15.709Z,73.50
2018-08-13T02:49:44.132Z,73.90
2018-08-13T02:52:12.560Z,74.00
2018-08-13T02:54:41.033Z,74.10
2018-08-13T02:57:09.398Z,74.10
2018-08-13T02:59:37.830Z,74.60
2018-08-13T03:02:06.333Z,74.80
2018-08-13T03:04:34.822Z,74.80
2018-08-13T03:07:03.187Z,74.80
2018-08-13T03:09:31.668Z,74.60
2018-08-13T03:12:00.213Z,74.20
2018-08-13T03:14:28.641Z,74.10
2018-08-13T03:16:57.120Z,74.00
2018-08-13T03:19:25.664Z,73.70
2018-08-13T03:21:54.176Z,73.70
2018-08-13T03:24:22.863Z,73.70
2018-08-13T03:26:51.368Z,73.70
2018-08-13T03:29:19.816Z,73.70
2018-08-13T03:31:48.230Z,73.80
2018-08-13T03:34:16.653Z,73.40
2018-08-13T03:36:45.080Z,73.60
2018-08-13T03:39:14.200Z,73.90
2018-08-13T03:41:43.543Z,73.80
2018-08-13T03:44:12.597Z,74.00
2018-08-13T03:46:41.097Z,74.00
2018-08-13T03:49:10.889Z,73.90
2018-08-13T03:51:39.366Z,73.80
2018-08-13T03:54:07.815Z,73.70
2018-08-13T03:56:36.274Z,73.80
2018-08-13T03:59:04.749Z,73.70
2018-08-13T04:01:33.213Z,73.50
2018-08-13T04:04:01.649Z,73.60
2018-08-13T04:06:30.088Z,73.50
2018-08-13T04:08:58.803Z,74.30
2018-08-13T04:11:27.288Z,74.50
2018-08-13T04:13:55.746Z,74.50
2018-08-13T04:16:24.197Z,73.90
2018-08-13T04:18:52.637Z,73.70
2018-08-13T04:21:21.119Z,73.50
2018-08-13T04:23:49.525Z,73.40
2018-08-13T04:26:19.147Z,73.40
2018-08-13T04:28:47.547Z,73.40
2018-08-13T04:31:15.965Z,73.50
2018-08-13T04:33:44.891Z,73.90
2018-08-13T04:36:13.484Z,73.70
2018-08-13T04:38:43.042Z,73.10
2018-08-13T04:41:11.394Z,73.00
2018-08-13T04:43:39.872Z,72.40
2018-08-13T04:46:08.662Z,72.10
2018-08-13T04:48:37.105Z,72.20
2018-08-13T04:51:05.586Z,72.30
2018-08-13T04:53:34.060Z,73.10
2018-08-13T04:56:02.464Z,73.20
2018-08-13T04:58:31.017Z,73.70
2018-08-13T05:00:59.446Z,74.10
2018-08-13T05:03:28.083Z,74.00
2018-08-13T05:05:56.597Z,74.00
2018-08-13T05:08:25.044Z,73.90
2018-08-13T05:10:53.435Z,73.30
2018-08-13T05:13:21.880Z,72.50
2018-08-13T05:15:50.286Z,71.70
2018-08-13T05:18:18.747Z,72.00
2018-08-13T05:20:47.124Z,72.30
2018-08-13T05:23:15.531Z,72.50
2018-08-13T05:25:44.959Z,72.00
2018-08-13T05:28:13.409Z,71.70
2018-08-13T05:30:42.457Z,71.80
2018-08-13T05:33:10.924Z,72.70
2018-08-13T05:35:39.348Z,72.80
2018-08-13T05:38:07.865Z,71.20
2018-08-13T05:40:36.223Z,71.60
2018-08-13T05:43:04.704Z,71.30
2018-08-13T05:45:36.090Z,70.50
2018-08-13T05:48:04.591Z,69.90
2018-08-13T05:50:33.483Z,70.70
2018-08-13T05:53:01.984Z,69.70
2018-08-13T05:55:30.373Z,69.90
2018-08-13T05:57:58.827Z,70.00
2018-08-13T06:00:27.714Z,70.40
2018-08-13T06:02:56.291Z,70.50
2018-08-13T06:05:24.754Z,70.20
2018-08-13T06:07:53.240Z,69.80
2018-08-13T06:10:21.628Z,70.40
2018-08-13T06:12:50.043Z,70.50
2018-08-13T06:15:18.566Z,71.60
2018-08-13T06:17:47.044Z,71.40
2018-08-13T06:20:15.687Z,70.90
2018-08-13T06:22:44.624Z,70.60
2018-08-13T06:25:13.972Z,70.40
2018-08-13T06:27:42.460Z,70.50
2018-08-13T06:30:12.908Z,71.00
2018-08-13T06:32:42.121Z,71.80
2018-08-13T06:35:12.658Z,72.10
2018-08-13T06:37:42.042Z,72.00
2018-08-13T06:40:10.607Z,71.60
2018-08-13T06:42:39.612Z,75.20
2018-08-13T06:45:09.093Z,77.90
2018-08-13T06:47:38.135Z,75.90
2018-08-13T06:50:07.833Z,78.00
2018-08-13T06:52:36.439Z,77.40
2018-08-13T06:55:05.436Z,80.40
2018-08-13T06:57:34.028Z,80.60
2018-08-13T07:00:02.510Z,81.30
2018-08-13T07:02:30.914Z,83.60
2018-08-13T07:04:59.443Z,83.20
2018-08-13T07:07:27.911Z,84.20
2018-08-13T07:09:56.340Z,84.70
2018-08-13T07:12:24.802Z,87.20
2018-08-13T07:14:53.251Z,88.60
2018-08-13T07:17:21.657Z,89.30
2018-08-13T07:19:50.141Z,88.60
2018-08-13T07:22:18.635Z,88.80
2018-08-13T07:24:47.038Z,88.90
2018-08-13T07:27:15.488Z,90.40
2018-08-13T07:29:44.010Z,90.20
2018-08-13T07:32:12.503Z,88.40
2018-08-13T07:34:40.968Z,91.10
2018-08-13T07:37:09.584Z,90.00
2018-08-13T07:39:37.939Z,88.70
2018-08-13T07:42:06.385Z,89.90
2018-08-13T07:44:34.763Z,90.10
2018-08-13T07:47:03.206Z,90.00
2018-08-13T07:49:31.756Z,90.50
2018-08-13T07:52:00.231Z,90.60
2018-08-13T07:54:28.671Z,90.00
2018-08-13T07:56:57.098Z,90.20
2018-08-13T07:59:25.543Z,90.10
2018-08-13T08:01:53.966Z,90.30
2018-08-13T08:04:22.427Z,89.80
2018-08-13T08:06:50.920Z,89.70
2018-08-13T08:09:19.384Z,89.90
2018-08-13T08:11:47.697Z,89.40
2018-08-13T08:14:16.375Z,89.70
2018-08-13T08:16:44.901Z,90.50
2018-08-13T08:19:13.280Z,89.00
2018-08-13T08:21:41.758Z,89.00
2018-08-13T08:24:10.852Z,88.80
2018-08-13T08:26:39.466Z,88.60
2018-08-13T08:29:08.616Z,88.80
2018-08-13T08:31:37.203Z,90.10
2018-08-13T08:34:05.660Z,90.40
2018-08-13T08:36:34.145Z,91.00
2018-08-13T08:39:02.743Z,91.00
2018-08-13T08:41:31.157Z,91.70
2018-08-13T08:43:59.645Z,92.00
2018-08-13T08:46:28.171Z,92.70
2018-08-13T08:48:57.507Z,92.40
2018-08-13T08:51:25.946Z,92.40
2018-08-13T08:53:54.401Z,93.30
2018-08-13T08:56:22.826Z,93.20
2018-08-13T08:58:51.242Z,92.20
2018-08-13T09:01:19.755Z,93.20
2018-08-13T09:03:48.148Z,93.50
2018-08-13T09:06:16.550Z,93.00
2018-08-13T09:08:45.009Z,93.40
2018-08-13T09:11:13.512Z,94.30
2018-08-13T09:13:41.918Z,94.20
2018-08-13T09:16:10.328Z,94.90
2018-08-13T09:18:50.141Z,95.00
2018-08-13T09:21:30.364Z,95.30
2018-08-13T09:24:10.886Z,96.20
2018-08-13T09:26:50.821Z,96.40
2018-08-13T09:29:30.834Z,96.80
2018-08-13T09:32:29.556Z,96.60
2018-08-13T09:35:10.925Z,96.70
2018-08-13T09:37:39.379Z,96.70
2018-08-13T09:40:08.640Z,96.60
2018-08-13T09:42:37.245Z,96.10
2018-08-13T09:45:07.364Z,96.10
2018-08-13T09:47:36.107Z,97.00
2018-08-13T09:50:06.960Z,95.70
2018-08-13T09:52:35.514Z,95.90
2018-08-13T09:55:04.444Z,95.40
2018-08-13T09:57:32.896Z,94.50
2018-08-13T10:00:01.456Z,93.80
2018-08-13T10:02:29.928Z,93.90
2018-08-13T10:04:58.362Z,93.80
2018-08-13T10:07:26.788Z,93.30
2018-08-13T10:09:55.308Z,92.80
2018-08-13T10:12:23.763Z,91.50
2018-08-13T10:14:52.316Z,92.30
2018-08-13T10:17:20.741Z,90.70
2018-08-13T10:19:49.161Z,91.40
2018-08-13T10:22:17.673Z,91.70
2018-08-13T10:24:46.147Z,90.90
2018-08-13T10:27:14.629Z,91.00
2018-08-13T10:29:43.155Z,91.10
2018-08-13T10:32:11.560Z,90.80
2018-08-13T10:34:40.022Z,92.00
2018-08-13T10:37:08.759Z,92.00
2018-08-13T10:39:37.203Z,92.40
2018-08-13T10:42:05.773Z,92.50
2018-08-13T10:44:34.225Z,93.10
2018-08-13T10:47:02.642Z,93.00
2018-08-13T10:49:31.099Z,92.70
2018-08-13T10:51:59.565Z,93.50
2018-08-13T10:54:28.052Z,93.50
2018-08-13T10:56:56.636Z,93.30
2018-08-13T10:59:25.092Z,92.40
2018-08-13T11:01:53.513Z,90.90
2018-08-13T11:04:21.961Z,90.40
2018-08-13T11:06:50.459Z,90.30
2018-08-13T11:09:18.913Z,90.50
2018-08-13T11:11:47.436Z,91.00
2018-08-13T11:14:15.965Z,90.80
2018-08-13T11:16:44.385Z,90.30
2018-08-13T11:19:13.002Z,90.20
2018-08-13T11:21:41.452Z,91.30
2018-08-13T11:24:09.892Z,91.20
2018-08-13T11:26:38.319Z,90.70
2018-08-13T11:29:06.879Z,90.00
2018-08-13T11:31:35.399Z,89.70
2018-08-13T11:34:03.907Z,88.60
2018-08-13T11:36:32.358Z,88.90
2018-08-13T11:39:00.790Z,89.20
2018-08-13T11:41:29.274Z,90.30
2018-08-13T11:43:57.728Z,90.80
2018-08-13T11:46:26.302Z,91.30
2018-08-13T11:48:54.750Z,90.80
2018-08-13T11:51:23.353Z,91.30
2018-08-13T11:53:51.814Z,92.80
2018-08-13T11:56:20.321Z,93.70
2018-08-13T11:58:48.687Z,95.40
2018-08-13T12:01:17.679Z,95.10
2018-08-13T12:03:46.004Z,96.80
2018-08-13T12:06:14.530Z,97.70
2018-08-13T12:08:49.440Z,98.00
2018-08-13T12:11:17.976Z,98.50
2018-08-13T12:13:46.357Z,99.00
2018-08-13T12:16:14.787Z,98.80
2018-08-13T12:18:43.191Z,99.30
2018-08-13T12:21:11.681Z,99.40
2018-08-13T12:23:40.329Z,99.60
2018-08-13T12:26:08.887Z,99.00
2018-08-13T12:28:37.480Z,96.30
2018-08-13T12:31:08.786Z,89.60
2018-08-13T12:33:37.340Z,86.70
2018-08-13T12:36:05.892Z,85.50
2018-08-13T12:38:34.369Z,85.60
2018-08-13T12:41:02.944Z,86.10
2018-08-13T12:43:31.457Z,88.50
2018-08-13T12:46:00.041Z,89.70
2018-08-13T12:48:28.503Z,91.00
2018-08-13T12:50:56.978Z,92.20
2018-08-13T12:53:25.464Z,94.50
2018-08-13T12:55:53.907Z,96.40
2018-08-13T12:58:22.447Z,96.40
2018-08-13T13:00:56.856Z,97.10
2018-08-13T13:03:26.418Z,97.60
2018-08-13T13:05:55.029Z,96.70
2018-08-13T13:08:23.553Z,96.80
2018-08-13T13:10:51.992Z,94.90
2018-08-13T13:13:20.388Z,93.60
2018-08-13T13:15:48.826Z,92.60
2018-08-13T13:18:17.251Z,91.40
2018-08-13T13:20:45.713Z,89.70
2018-08-13T13:23:14.111Z,85.30
2018-08-13T13:25:42.520Z,81.50
2018-08-13T13:28:10.948Z,81.50
2018-08-13T13:30:39.423Z,81.70
2018-08-13T13:33:08.019Z,79.80
2018-08-13T13:35:36.614Z,79.10
2018-08-13T13:38:05.223Z,76.70
2018-08-13T13:40:33.688Z,73.80
2018-08-13T13:43:02.213Z,74.20
2018-08-13T13:45:30.660Z,75.70
2018-08-13T13:47:59.136Z,74.70
2018-08-13T13:50:27.608Z,70.80
2018-08-13T13:52:56.127Z,70.70
2018-08-13T13:55:24.631Z,70.70
2018-08-13T13:57:53.040Z,71.30
2018-08-13T14:00:21.984Z,65.80
2018-08-13T14:02:51.535Z,62.90
2018-08-13T14:05:20.175Z,63.70
2018-08-13T14:07:48.692Z,65.10
2018-08-13T14:10:20.296Z,67.50
2018-08-13T14:12:48.733Z,67.20
2018-08-13T14:15:20.309Z,68.20
2018-08-13T14:17:49.067Z,66.60
2018-08-13T14:20:17.618Z,67.70
2018-08-13T14:22:46.095Z,68.10
2018-08-13T14:25:14.982Z,69.00
2018-08-13T14:27:43.482Z,68.90
2018-08-13T14:30:20.013Z,67.70
2018-08-13T14:32:48.797Z,67.30
2018-08-13T14:35:18.087Z,70.40
2018-08-13T14:37:46.573Z,70.70
2018-08-13T14:40:15.143Z,71.70
2018-08-13T14:42:44.260Z,71.50
2018-08-13T14:45:14.300Z,72.80
2018-08-13T14:47:45.810Z,73.20
2018-08-13T14:50:14.665Z,73.00
2018-08-13T14:52:44.358Z,73.30
2018-08-13T14:55:13.928Z,74.90
2018-08-13T14:57:42.386Z,75.40
2018-08-13T15:00:30.832Z,74.90
2018-08-13T15:02:59.296Z,77.10
2018-08-13T15:05:27.768Z,76.70
2018-08-13T15:07:56.279Z,76.80
2018-08-13T15:10:25.650Z,77.60
2018-08-13T15:12:54.348Z,79.20
2018-08-13T15:15:22.855Z,77.80
2018-08-13T15:17:51.263Z,79.00
2018-08-13T15:20:24.884Z,79.70
2018-08-13T15:22:53.537Z,80.80
2018-08-13T15:25:22.031Z,81.80
2018-08-13T15:27:50.607Z,81.30
2018-08-13T15:30:19.742Z,81.10
2018-08-13T15:32:49.196Z,81.00
2018-08-13T15:35:18.593Z,80.50
2018-08-13T15:37:47.626Z,80.40
2018-08-13T15:40:16.198Z,80.70
2018-08-13T15:42:44.776Z,80.00
2018-08-13T15:45:18.415Z,80.30
2018-08-13T15:47:47.717Z,80.30
2018-08-13T15:50:18.167Z,80.30
2018-08-13T15:52:47.110Z,80.30
2018-08-13T15:55:15.727Z,80.40
2018-08-13T15:57:44.833Z,79.10
2018-08-13T16:00:15.690Z,79.50
2018-08-13T16:02:44.388Z,80.00
2018-08-13T16:05:13.013Z,79.90
2018-08-13T16:07:41.719Z,80.30
2018-08-13T16:10:12.860Z,80.80
2018-08-13T16:12:41.775Z,81.20
2018-08-13T16:15:10.325Z,82.10
2018-08-13T16:17:39.420Z,82.10
2018-08-13T16:20:14.558Z,82.90
2018-08-13T16:22:44.119Z,83.00
2018-08-13T16:25:12.723Z,84.90
2018-08-13T16:27:41.273Z,87.40
2018-08-13T16:30:15.741Z,88.40
2018-08-13T16:32:44.757Z,88.20
2018-08-13T16:35:13.274Z,85.80
2018-08-13T16:37:41.843Z,82.70
2018-08-13T16:40:10.433Z,80.90
2018-08-13T16:42:39.191Z,80.80
2018-08-13T16:45:08.575Z,78.60
2018-08-13T16:47:37.165Z,79.00
2018-08-13T16:50:11.355Z,78.70
2018-08-13T16:52:39.907Z,76.00
2018-08-13T16:55:08.812Z,75.00
2018-08-13T16:57:37.367Z,72.20
2018-08-13T17:00:08.583Z,69.60
2018-08-13T17:02:37.412Z,65.40
2018-08-13T17:05:09.150Z,60.90
2018-08-13T17:07:37.793Z,58.80
2018-08-13T17:10:08.596Z,58.20
2018-08-13T17:12:37.162Z,57.90
2018-08-13T17:15:07.435Z,59.80
2018-08-13T17:17:35.926Z,61.50
2018-08-13T17:20:04.760Z,63.10
2018-08-13T17:22:33.360Z,64.40
2018-08-13T17:25:01.848Z,65.90
2018-08-13T17:27:30.424Z,66.20
2018-08-13T17:29:58.932Z,65.10
2018-08-13T17:32:27.449Z,63.50
2018-08-13T17:34:55.934Z,64.60
2018-08-13T17:37:24.490Z,66.70
2018-08-13T17:39:53.007Z,68.30
2018-08-13T17:42:21.780Z,70.90
2018-08-13T17:44:50.341Z,73.30
2018-08-13T17:47:18.822Z,75.00
2018-08-13T17:49:47.316Z,76.20
2018-08-13T17:52:15.809Z,77.00
2018-08-13T17:54:44.279Z,78.00
2018-08-13T17:57:12.764Z,79.50
2018-08-13T17:59:41.390Z,80.40
2018-08-13T18:02:09.878Z,81.20
2018-08-13T18:04:38.355Z,82.20
2018-08-13T18:07:07.137Z,82.20
2018-08-13T18:09:35.685Z,82.80
2018-08-13T18:12:04.263Z,82.90
2018-08-13T18:14:32.828Z,82.80
2018-08-13T18:17:01.299Z,83.80
2018-08-13T18:19:29.801Z,84.20
2018-08-13T18:21:58.260Z,83.60
2018-08-13T18:24:27.261Z,84.10
2018-08-13T18:26:55.847Z,84.60
2018-08-13T18:29:24.418Z,84.80
2018-08-13T18:31:52.920Z,84.80
2018-08-13T18:34:21.641Z,88.70
2018-08-13T18:36:50.078Z,91.60
2018-08-13T18:39:18.596Z,90.70
2018-08-13T18:41:47.107Z,97.00
2018-08-13T18:44:15.540Z,95.60
2018-08-13T18:46:43.993Z,99.80
2018-08-13T18:49:12.398Z,99.80
2018-08-13T18:51:40.867Z,99.80
2018-08-13T18:54:09.387Z,99.80
2018-08-13T18:56:37.860Z,99.80
2018-08-13T18:59:06.389Z,99.80
2018-08-13T19:01:34.746Z,99.80
2018-08-13T19:04:03.276Z,99.80
2018-08-13T19:13:37.088Z,99.80
2018-08-13T19:16:15.896Z,99.80
2018-08-13T19:18:50.056Z,99.80
2018-08-13T19:21:22.017Z,99.80
2018-08-13T19:23:51.561Z,99.80
2018-08-13T19:26:26.344Z,99.80
2018-08-13T19:28:58.587Z,99.80
2018-08-13T19:31:29.303Z,99.80
2018-08-13T19:34:01.697Z,99.80
2018-08-13T19:36:30.737Z,99.80
2018-08-13T19:38:59.772Z,99.80
2018-08-13T19:41:28.501Z,99.80
2018-08-13T19:43:57.480Z,99.80
2018-08-13T19:46:26.322Z,99.80
2018-08-13T19:48:56.656Z,99.80
2018-08-13T19:51:25.698Z,99.80
2018-08-13T19:53:54.364Z,99.80
2018-08-13T19:56:22.947Z,99.80
2018-08-13T19:58:58.350Z,99.80
2018-08-13T20:01:26.997Z,99.80
2018-08-13T20:03:55.665Z,99.80
2018-08-13T20:06:24.223Z,99.80
2018-08-13T20:08:52.878Z,99.80
2018-08-13T20:11:21.386Z,99.80
2018-08-13T20:13:50.385Z,99.80
2018-08-13T20:16:19.627Z,99.80
2018-08-13T20:18:49.300Z,99.80
2018-08-13T20:21:19.556Z,99.80
2018-08-13T20:23:48.383Z,99.80
2018-08-13T20:26:17.141Z,99.80
2018-08-13T20:28:45.793Z,99.80
2018-08-13T20:31:15.191Z,99.80
2018-08-13T20:33:43.948Z,99.80
2018-08-13T20:36:12.674Z,99.80
2018-08-13T20:38:41.338Z,99.80
2018-08-13T20:41:10.119Z,99.80
2018-08-13T20:43:38.870Z,99.80
2018-08-13T20:46:07.567Z,99.80
2018-08-13T20:48:36.217Z,99.80
2018-08-13T20:51:04.835Z,99.80
2018-08-13T20:53:33.394Z,99.80
2018-08-13T20:56:02.007Z,99.80
2018-08-13T20:58:30.599Z,99.80
2018-08-13T21:00:59.197Z,99.80
2018-08-13T21:03:27.786Z,99.80
2018-08-13T21:05:56.269Z,99.80
2018-08-13T21:08:24.785Z,99.80
2018-08-13T21:10:53.318Z,99.80
2018-08-13T21:13:21.833Z,99.80
2018-08-13T21:15:50.493Z,99.80
2018-08-13T21:18:18.901Z,99.80
2018-08-13T21:20:47.480Z,99.80
2018-08-13T21:23:16.004Z,99.80
2018-08-13T21:25:44.669Z,99.80
2018-08-13T21:28:13.270Z,99.80
2018-08-13T21:30:41.901Z,99.80
2018-08-13T21:33:10.494Z,99.80
2018-08-13T21:35:38.992Z,99.80
2018-08-13T21:38:07.487Z,99.80
2018-08-13T21:40:35.976Z,99.80
2018-08-13T21:43:04.502Z,99.80
2018-08-13T21:45:33.039Z,99.80
2018-08-13T21:48:01.572Z,99.80
2018-08-13T21:50:30.092Z,99.80
2018-08-13T21:52:58.605Z,99.80
2018-08-13T21:55:27.151Z,99.80
2018-08-13T21:57:55.708Z,99.80
2018-08-13T22:00:30.154Z,99.80
2018-08-13T22:32:24.595Z,99.80
2018-08-13T22:41:20.525Z,99.80
2018-08-13T22:44:02.822Z,99.80
2018-08-13T22:49:43.758Z,99.80
2018-08-13T23:06:10.502Z,99.80
2018-08-13T23:08:48.854Z,99.80
2018-08-13T23:11:22.312Z,99.80
2018-08-13T23:14:08.771Z,99.80
2018-08-13T23:16:46.665Z,99.80
2018-08-13T23:19:22.016Z,99.80
2018-08-13T23:22:04.574Z,99.80
2018-08-13T23:24:49.786Z,99.80
2018-08-13T23:27:35.238Z,99.80
2018-08-13T23:30:11.893Z,99.80
2018-08-13T23:33:30.310Z,99.80
2018-08-13T23:48:41.481Z,99.80
2018-08-13T23:54:22.001Z,99.80
2018-08-13T23:57:01.889Z,99.80
2018-08-13T23:59:56.797Z,99.80
